createdAt,value
2022-10-11T00:00:58.117Z,18.18
2022-10-11T00:03:26.045Z,18.17
2022-10-11T00:05:54.406Z,18.17
2022-10-11T00:08:22.789Z,18.09
2022-10-11T00:11:06.225Z,17.89
2022-10-11T00:13:34.736Z,17.95
2022-10-11T00:16:09.256Z,17.96
2022-10-11T00:18:37.483Z,17.94
2022-10-11T00:21:10.537Z,17.98
2022-10-11T00:23:39.261Z,17.86
2022-10-11T00:26:10.208Z,17.84
2022-10-11T00:28:38.551Z,17.79
2022-10-11T00:31:18.708Z,17.82
2022-10-11T00:33:46.948Z,17.82
2022-10-11T00:36:17.505Z,17.74
2022-10-11T00:38:47.471Z,17.54
2022-10-11T00:41:16.547Z,17.48
2022-10-11T00:43:45.237Z,17.37
2022-10-11T00:46:18.958Z,17.35
2022-10-11T00:48:50.616Z,17.23
2022-10-11T00:51:52.480Z,17.12
2022-10-11T00:54:25.968Z,17.22
2022-10-11T00:57:00.453Z,17.03
2022-10-11T00:59:35.161Z,17.22
2022-10-11T01:02:05.149Z,17.31
2022-10-11T01:04:34.265Z,17.37
2022-10-11T01:07:03.123Z,17.40
2022-10-11T01:09:31.227Z,17.42
2022-10-11T01:12:02.267Z,17.43
2022-10-11T01:15:22.858Z,17.44
2022-10-11T01:18:33.992Z,17.47
2022-10-11T01:21:49.941Z,17.47
2022-10-11T01:24:41.723Z,17.51
2022-10-11T01:27:36.738Z,17.38
2022-10-11T01:30:23.258Z,17.13
2022-10-11T01:33:17.968Z,17.15
2022-10-11T01:36:14.176Z,17.21
2022-10-11T01:38:53.950Z,17.20
2022-10-11T01:41:34.492Z,17.24
2022-10-11T01:44:03.683Z,17.26
2022-10-11T01:46:33.063Z,17.29
2022-10-11T01:49:02.487Z,17.35
2022-10-11T01:51:45.213Z,17.34
2022-10-11T01:55:08.506Z,17.27
2022-10-11T01:57:58.356Z,17.29
2022-10-11T02:00:46.691Z,17.23
2022-10-11T02:03:31.965Z,17.17
2022-10-11T02:06:23.205Z,17.15
2022-10-11T02:08:53.860Z,17.07
2022-10-11T02:11:31.625Z,16.99
2022-10-11T02:14:13.223Z,16.92
2022-10-11T02:16:57.607Z,16.96
2022-10-11T02:19:32.919Z,17.05
2022-10-11T02:22:08.355Z,17.09
2022-10-11T02:24:41.519Z,17.16
2022-10-11T02:27:12.577Z,17.24
2022-10-11T02:29:43.842Z,17.28
2022-10-11T02:32:13.744Z,17.31
2022-10-11T02:35:02.826Z,17.33
2022-10-11T02:38:01.720Z,17.27
2022-10-11T02:40:45.213Z,17.25
2022-10-11T02:43:37.020Z,17.23
2022-10-11T02:46:08.072Z,17.19
2022-10-11T02:48:37.460Z,17.12
2022-10-11T02:51:05.580Z,17.08
2022-10-11T02:53:33.687Z,17.05
2022-10-11T02:56:01.556Z,17.07
2022-10-11T02:58:29.480Z,17.09
2022-10-11T03:00:57.221Z,17.12
2022-10-11T03:03:24.953Z,17.06
2022-10-11T03:06:02.584Z,17.08
2022-10-11T03:08:31.075Z,17.08
2022-10-11T03:10:58.889Z,17.01
2022-10-11T03:13:26.672Z,16.90
2022-10-11T03:16:07.268Z,16.95
2022-10-11T03:18:35.334Z,16.94
2022-10-11T03:21:03.304Z,16.96
2022-10-11T03:23:31.044Z,17.00
2022-10-11T03:25:58.819Z,16.96
2022-10-11T03:28:27.063Z,17.01
2022-10-11T03:30:54.899Z,17.07
2022-10-11T03:33:22.676Z,17.12
2022-10-11T03:35:50.643Z,17.13
2022-10-11T03:38:21.921Z,17.15
2022-10-11T03:40:50.136Z,17.11
2022-10-11T03:43:18.207Z,17.12
2022-10-11T03:45:45.987Z,17.18
2022-10-11T03:48:13.758Z,17.17
2022-10-11T03:50:41.515Z,17.22
2022-10-11T03:53:09.609Z,17.28
2022-10-11T03:55:42.928Z,17.23
2022-10-11T03:58:10.709Z,17.29
2022-10-11T04:00:39.666Z,17.31
2022-10-11T04:03:07.494Z,17.31
2022-10-11T04:05:35.247Z,17.26
2022-10-11T04:08:05.433Z,17.26
2022-10-11T04:10:36.231Z,17.20
2022-10-11T04:13:04.002Z,17.13
2022-10-11T04:15:31.811Z,17.13
2022-10-11T04:17:59.661Z,17.14
2022-10-11T04:20:27.466Z,17.13
2022-10-11T04:22:55.268Z,17.16
2022-10-11T04:25:23.018Z,17.16
2022-10-11T04:27:50.979Z,17.18
2022-10-11T04:30:19.231Z,17.15
2022-10-11T04:32:47.094Z,17.11
2022-10-11T04:35:15.002Z,17.10
2022-10-11T04:37:42.761Z,17.12
2022-10-11T04:40:11.713Z,17.06
2022-10-11T04:42:39.515Z,17.00
2022-10-11T04:45:09.410Z,17.08
2022-10-11T04:47:37.362Z,17.18
2022-10-11T04:50:06.384Z,17.24
2022-10-11T04:52:34.175Z,17.18
2022-10-11T04:55:01.976Z,17.18
2022-10-11T04:57:29.811Z,17.21
2022-10-11T04:59:57.578Z,17.11
2022-10-11T05:02:25.369Z,17.10
2022-10-11T05:04:53.159Z,17.09
2022-10-11T05:07:21.157Z,17.13
2022-10-11T05:09:48.891Z,17.14
2022-10-11T05:12:16.623Z,17.14
2022-10-11T05:14:45.536Z,17.15
2022-10-11T05:17:13.397Z,17.11
2022-10-11T05:19:41.208Z,17.03
2022-10-11T05:22:09.119Z,17.07
2022-10-11T05:24:37.843Z,17.11
2022-10-11T05:27:05.596Z,17.10
2022-10-11T05:29:33.331Z,17.08
2022-10-11T05:32:01.143Z,17.06
2022-10-11T05:34:29.042Z,17.07
2022-10-11T05:36:57.239Z,17.06
2022-10-11T05:39:25.067Z,17.03
2022-10-11T05:41:52.882Z,17.08
2022-10-11T05:44:20.640Z,16.98
2022-10-11T05:46:48.411Z,16.84
2022-10-11T05:49:16.188Z,16.72
2022-10-11T05:51:44.086Z,16.68
2022-10-11T05:54:11.875Z,16.77
2022-10-11T05:56:39.680Z,16.85
2022-10-11T05:59:07.456Z,16.94
2022-10-11T06:01:35.489Z,16.92
2022-10-11T06:04:04.885Z,16.85
2022-10-11T06:06:32.652Z,16.92
2022-10-11T06:09:00.391Z,16.92
2022-10-11T06:11:28.694Z,16.93
2022-10-11T06:13:58.309Z,16.93
2022-10-11T06:16:26.603Z,16.87
2022-10-11T06:18:56.190Z,16.88
2022-10-11T06:21:25.104Z,16.86
2022-10-11T06:23:58.326Z,16.86
2022-10-11T06:26:29.477Z,16.84
2022-10-11T06:28:58.990Z,16.92
2022-10-11T06:31:26.933Z,16.95
2022-10-11T06:33:54.671Z,16.85
2022-10-11T06:36:22.704Z,16.86
2022-10-11T06:38:55.181Z,16.89
2022-10-11T06:41:30.251Z,16.95
2022-10-11T06:43:58.263Z,17.00
2022-10-11T06:46:28.391Z,16.95
2022-10-11T06:48:56.560Z,16.93
2022-10-11T06:51:25.388Z,16.98
2022-10-11T06:53:57.785Z,17.03
2022-10-11T06:56:27.773Z,17.08
2022-10-11T06:58:57.167Z,17.14
2022-10-11T07:01:25.594Z,17.18
2022-10-11T07:03:55.843Z,17.23
2022-10-11T07:06:28.726Z,17.19
2022-10-11T07:08:56.544Z,17.13
2022-10-11T07:11:27.466Z,17.19
2022-10-11T07:13:58.807Z,17.20
2022-10-11T07:16:28.549Z,17.22
2022-10-11T07:19:00.716Z,17.16
2022-10-11T07:21:31.018Z,17.20
2022-10-11T07:23:59.301Z,17.22
2022-10-11T07:26:28.283Z,17.17
2022-10-11T07:28:56.423Z,17.19
2022-10-11T07:31:26.453Z,17.16
2022-10-11T07:33:54.676Z,17.18
2022-10-11T07:36:23.473Z,17.10
2022-10-11T07:38:51.795Z,17.10
2022-10-11T07:41:19.865Z,17.07
2022-10-11T07:43:49.688Z,17.11
2022-10-11T07:46:18.793Z,17.10
2022-10-11T07:48:46.828Z,17.13
2022-10-11T07:51:21.791Z,17.18
2022-10-11T07:53:53.911Z,17.23
2022-10-11T07:56:29.437Z,17.25
2022-10-11T07:59:01.048Z,17.23
2022-10-11T08:01:31.386Z,17.24
2022-10-11T08:03:59.655Z,17.23
2022-10-11T08:06:32.672Z,17.22
2022-10-11T08:09:02.601Z,17.22
2022-10-11T08:11:36.678Z,17.13
2022-10-11T08:14:09.182Z,17.14
2022-10-11T08:16:40.742Z,17.10
2022-10-11T08:19:08.516Z,17.15
2022-10-11T08:21:36.752Z,17.17
2022-10-11T08:24:06.476Z,17.19
2022-10-11T08:26:34.557Z,17.20
2022-10-11T08:29:03.483Z,17.21
2022-10-11T08:31:32.624Z,17.22
2022-10-11T08:34:00.714Z,17.23
2022-10-11T08:36:28.491Z,17.29
2022-10-11T08:38:56.215Z,17.35
2022-10-11T08:41:38.927Z,17.40
2022-10-11T08:44:46.122Z,17.40
2022-10-11T08:47:47.318Z,17.37
2022-10-11T08:50:22.303Z,17.33
2022-10-11T08:53:13.403Z,17.39
2022-10-11T08:55:49.553Z,17.42
2022-10-11T08:58:29.227Z,17.46
2022-10-11T09:00:57.975Z,17.43
2022-10-11T09:03:47.202Z,17.51
2022-10-11T09:06:54.907Z,17.55
2022-10-11T09:09:25.317Z,17.62
2022-10-11T09:12:05.649Z,17.50
2022-10-11T09:14:44.971Z,17.51
2022-10-11T09:17:22.645Z,17.58
2022-10-11T09:20:33.133Z,17.56
2022-10-11T09:23:08.290Z,17.52
2022-10-11T09:25:55.820Z,17.47
2022-10-11T09:29:25.245Z,17.54
2022-10-11T09:31:57.128Z,17.66
2022-10-11T09:34:32.425Z,17.71
2022-10-11T09:37:42.467Z,17.75
2022-10-11T09:40:10.642Z,17.82
2022-10-11T09:42:38.370Z,17.80
2022-10-11T09:45:18.437Z,17.87
2022-10-11T09:47:46.486Z,17.84
2022-10-11T09:50:20.830Z,17.85
2022-10-11T09:52:51.322Z,17.78
2022-10-11T09:55:44.974Z,17.77
2022-10-11T09:58:35.353Z,17.75
2022-10-11T10:01:09.501Z,17.77
2022-10-11T10:03:44.398Z,17.94
2022-10-11T10:06:26.195Z,18.04
2022-10-11T10:08:55.214Z,18.12
2022-10-11T10:11:23.079Z,18.05
2022-10-11T10:13:57.195Z,18.12
2022-10-11T10:16:32.886Z,18.21
2022-10-11T10:19:14.216Z,18.31
2022-10-11T10:21:53.780Z,18.34
2022-10-11T10:24:42.718Z,18.40
2022-10-11T10:27:30.798Z,18.45
2022-10-11T10:30:14.508Z,18.40
2022-10-11T10:33:06.031Z,18.26
2022-10-11T10:35:45.589Z,18.38
2022-10-11T10:38:35.484Z,18.45
2022-10-11T10:41:10.799Z,18.43
2022-10-11T10:43:42.920Z,18.51
2022-10-11T10:46:46.968Z,18.61
2022-10-11T10:52:41.815Z,18.78
2022-10-11T10:55:39.870Z,18.86
2022-10-11T10:58:54.524Z,18.74
2022-10-11T11:01:39.133Z,18.72
2022-10-11T11:04:35.258Z,18.75
2022-10-11T11:07:21.912Z,18.81
2022-10-11T11:10:17.223Z,18.85
2022-10-11T11:12:50.379Z,18.89
2022-10-11T11:15:37.768Z,18.94
2022-10-11T11:18:30.010Z,18.91
2022-10-11T11:21:28.097Z,18.85
2022-10-11T11:24:24.501Z,18.94
2022-10-11T11:27:29.827Z,18.93
2022-10-11T11:30:09.745Z,19.05
2022-10-11T11:33:11.003Z,19.13
2022-10-11T11:35:48.538Z,19.26
2022-10-11T11:38:46.773Z,19.35
2022-10-11T11:41:30.833Z,19.37
2022-10-11T11:44:33.504Z,19.15
2022-10-11T11:47:05.663Z,19.12
2022-10-11T11:52:35.908Z,19.07
2022-10-11T11:55:28.687Z,19.09
2022-10-11T11:58:34.160Z,19.04
2022-10-11T12:01:31.547Z,19.10
2022-10-11T12:04:50.171Z,19.14
2022-10-11T12:07:23.570Z,19.21
2022-10-11T12:10:24.954Z,19.28
2022-10-11T12:13:17.254Z,19.35
2022-10-11T12:16:14.194Z,19.38
2022-10-11T12:18:57.865Z,19.40
2022-10-11T12:21:44.335Z,19.40
2022-10-11T12:24:24.343Z,19.42
2022-10-11T12:26:57.881Z,19.45
2022-10-11T12:29:49.694Z,19.54
2022-10-11T12:32:36.023Z,19.53
2022-10-11T12:35:31.846Z,19.50
2022-10-11T12:38:23.610Z,19.52
2022-10-11T12:41:19.947Z,19.47
2022-10-11T12:43:47.545Z,19.42
2022-10-11T12:46:50.410Z,19.36
2022-10-11T12:50:01.040Z,19.36
2022-10-11T12:52:41.646Z,19.33
2022-10-11T12:55:30.434Z,19.21
2022-10-11T12:58:24.177Z,19.14
2022-10-11T13:00:51.889Z,19.16
2022-10-11T13:03:43.474Z,19.14
2022-10-11T13:06:38.251Z,19.11
2022-10-11T13:09:24.835Z,19.08
2022-10-11T13:12:14.075Z,19.07
2022-10-11T13:15:03.919Z,19.07
2022-10-11T13:17:38.620Z,19.03
2022-10-11T13:20:17.373Z,19.05
2022-10-11T13:22:51.174Z,18.98
2022-10-11T13:25:45.424Z,18.97
2022-10-11T13:28:14.887Z,18.99
2022-10-11T13:30:50.891Z,18.89
2022-10-11T13:33:32.298Z,18.85
2022-10-11T13:36:02.972Z,18.81
2022-10-11T13:38:35.031Z,18.80
2022-10-11T13:41:10.314Z,18.84
2022-10-11T13:43:38.835Z,18.88
2022-10-11T13:46:23.693Z,18.92
2022-10-11T13:49:03.595Z,18.98
2022-10-11T13:51:38.354Z,18.94
2022-10-11T13:54:13.638Z,18.97
2022-10-11T13:56:49.913Z,18.97
2022-10-11T13:59:28.150Z,19.01
2022-10-11T14:02:01.908Z,18.99
2022-10-11T14:04:41.234Z,18.88
2022-10-11T14:07:24.772Z,18.97
2022-10-11T14:09:53.359Z,19.01
2022-10-11T14:12:39.747Z,19.04
2022-10-11T14:15:35.633Z,19.05
2022-10-11T14:18:42.825Z,19.05
2022-10-11T14:21:19.955Z,19.25
2022-10-11T14:24:12.571Z,19.31
2022-10-11T14:26:44.302Z,19.25
2022-10-11T14:29:23.947Z,19.17
2022-10-11T14:31:55.984Z,19.08
2022-10-11T14:34:25.792Z,19.10
2022-10-11T14:36:53.916Z,19.13
2022-10-11T14:39:26.311Z,19.15
2022-10-11T14:41:54.856Z,19.19
2022-10-11T14:44:23.542Z,19.16
2022-10-11T14:46:54.583Z,19.13
2022-10-11T14:49:27.096Z,19.06
2022-10-11T14:51:58.239Z,19.02
2022-10-11T14:54:28.920Z,18.97
2022-10-11T14:56:59.753Z,18.96
2022-10-11T14:59:34.570Z,18.97
2022-10-11T15:02:05.109Z,18.97
2022-10-11T15:04:33.377Z,18.92
2022-10-11T15:07:01.656Z,18.88
2022-10-11T15:09:30.151Z,18.88
2022-10-11T15:11:58.403Z,18.88
2022-10-11T15:14:26.675Z,18.83
2022-10-11T15:16:56.166Z,18.84
2022-10-11T15:19:25.447Z,18.83
2022-10-11T15:21:53.474Z,18.84
2022-10-11T15:24:21.326Z,18.86
2022-10-11T15:26:49.649Z,18.85
2022-10-11T15:29:18.061Z,18.81
2022-10-11T15:31:46.627Z,18.79
2022-10-11T15:34:14.542Z,18.76
2022-10-11T15:36:42.828Z,18.74
2022-10-11T15:39:28.614Z,18.75
2022-10-11T15:41:57.675Z,18.73
2022-10-11T15:44:26.205Z,18.70
2022-10-11T15:46:53.978Z,18.72
2022-10-11T15:49:21.896Z,18.67
2022-10-11T15:51:49.654Z,18.65
2022-10-11T15:54:17.377Z,18.66
2022-10-11T15:56:45.135Z,18.63
2022-10-11T15:59:13.050Z,18.61
2022-10-11T16:01:40.945Z,18.58
2022-10-11T16:04:09.521Z,18.54
2022-10-11T16:06:37.279Z,18.48
2022-10-11T16:09:05.171Z,18.42
2022-10-11T16:11:33.120Z,18.39
2022-10-11T16:14:00.843Z,18.36
2022-10-11T16:16:28.643Z,18.34
2022-10-11T16:18:56.628Z,18.32
2022-10-11T16:21:24.375Z,18.27
2022-10-11T16:23:52.182Z,18.25
2022-10-11T16:26:20.559Z,18.22
2022-10-11T16:28:48.601Z,18.19
2022-10-11T16:31:20.691Z,18.17
2022-10-11T16:33:50.188Z,18.14
2022-10-11T16:36:36.953Z,18.07
2022-10-11T16:39:18.293Z,18.05
2022-10-11T16:41:46.943Z,18.01
2022-10-11T16:44:19.306Z,18.00
2022-10-11T16:46:48.749Z,17.96
2022-10-11T16:49:19.629Z,17.94
2022-10-11T16:51:47.496Z,17.93
2022-10-11T16:54:20.045Z,17.91
2022-10-11T16:56:50.254Z,17.92
2022-10-11T16:59:18.076Z,17.90
2022-10-11T17:01:46.302Z,17.88
2022-10-11T17:04:14.852Z,17.87
2022-10-11T17:06:44.045Z,17.85
2022-10-11T17:09:12.181Z,17.84
2022-10-11T17:11:40.832Z,17.83
2022-10-11T17:14:10.290Z,17.82
2022-10-11T17:16:38.207Z,17.83
2022-10-11T17:19:13.841Z,17.84
2022-10-11T17:21:42.096Z,17.84
2022-10-11T17:24:10.006Z,17.86
2022-10-11T17:26:37.776Z,17.86
2022-10-11T17:29:05.657Z,17.84
2022-10-11T17:31:33.711Z,17.85
2022-10-11T17:34:01.566Z,17.86
2022-10-11T17:36:34.357Z,17.86
2022-10-11T17:39:07.153Z,17.91
2022-10-11T17:41:35.469Z,17.93
2022-10-11T17:44:03.587Z,17.94
2022-10-11T17:46:34.485Z,17.94
2022-10-11T17:49:05.000Z,17.95
2022-10-11T17:51:34.206Z,17.94
2022-10-11T17:54:02.063Z,17.92
2022-10-11T17:56:35.051Z,17.86
2022-10-11T17:59:04.545Z,17.87
2022-10-11T18:01:32.326Z,17.85
2022-10-11T18:04:04.248Z,17.86
2022-10-11T18:06:39.068Z,17.85
2022-10-11T18:09:06.945Z,17.85
2022-10-11T18:11:35.255Z,17.88
2022-10-11T18:14:04.533Z,17.89
2022-10-11T18:16:32.996Z,17.88
2022-10-11T18:19:05.274Z,17.86
2022-10-11T18:21:34.945Z,17.84
2022-10-11T18:24:07.882Z,17.82
2022-10-11T18:26:35.648Z,17.85
2022-10-11T18:29:04.932Z,17.82
2022-10-11T18:31:36.629Z,17.82
2022-10-11T18:34:06.186Z,17.81
2022-10-11T18:36:34.359Z,17.82
2022-10-11T18:39:08.106Z,17.84
2022-10-11T18:41:37.879Z,17.94
2022-10-11T18:44:08.703Z,17.92
2022-10-11T18:46:36.900Z,17.86
2022-10-11T18:49:04.841Z,17.85
2022-10-11T18:51:37.016Z,17.87
2022-10-11T18:54:07.633Z,17.83
2022-10-11T18:56:37.058Z,17.81
2022-10-11T18:59:06.466Z,17.79
2022-10-11T19:01:38.740Z,17.78
2022-10-11T19:04:09.869Z,17.76
2022-10-11T19:06:44.592Z,17.77
2022-10-11T19:09:21.704Z,17.77
2022-10-11T19:11:52.486Z,17.78
2022-10-11T19:14:23.280Z,17.77
2022-10-11T19:16:52.560Z,17.77
2022-10-11T19:19:28.933Z,17.76
2022-10-11T19:21:57.209Z,17.74
2022-10-11T19:24:28.310Z,17.71
2022-10-11T19:27:02.022Z,17.67
2022-10-11T19:29:31.507Z,17.65
2022-10-11T19:32:03.582Z,17.62
2022-10-11T19:34:32.732Z,17.63
2022-10-11T19:37:04.183Z,17.62
2022-10-11T19:39:32.227Z,17.64
2022-10-11T19:42:00.885Z,17.66
2022-10-11T19:44:28.698Z,17.66
2022-10-11T19:46:58.307Z,17.67
2022-10-11T19:49:28.113Z,17.67
2022-10-11T19:51:55.937Z,17.64
2022-10-11T19:54:24.424Z,17.61
2022-10-11T19:56:52.572Z,17.61
2022-10-11T19:59:20.430Z,17.60
2022-10-11T20:01:52.700Z,17.61
2022-10-11T20:04:50.969Z,17.59
2022-10-11T20:07:08.744Z,17.57
2022-10-11T20:09:36.753Z,17.50
2022-10-11T20:12:04.697Z,17.47
2022-10-11T20:14:32.515Z,17.46
2022-10-11T20:17:00.255Z,17.43
2022-10-11T20:19:31.389Z,17.41
2022-10-11T20:22:01.230Z,17.42
2022-10-11T20:24:33.478Z,17.42
2022-10-11T20:27:04.338Z,17.42
2022-10-11T20:29:32.191Z,17.41
2022-10-11T20:32:00.164Z,17.42
2022-10-11T20:34:28.339Z,17.42
2022-10-11T20:36:56.082Z,17.40
2022-10-11T20:39:24.056Z,17.40
2022-10-11T20:41:51.813Z,17.40
2022-10-11T20:44:19.609Z,17.39
2022-10-11T20:46:47.337Z,17.34
2022-10-11T20:49:15.155Z,17.31
2022-10-11T20:51:43.417Z,17.30
2022-10-11T20:54:12.858Z,17.31
2022-10-11T20:56:40.875Z,17.34
2022-10-11T20:59:10.121Z,17.35
2022-10-11T21:01:40.982Z,17.37
2022-10-11T21:04:18.087Z,17.38
2022-10-11T21:06:47.955Z,17.38
2022-10-11T21:09:16.960Z,17.38
2022-10-11T21:11:45.011Z,17.39
2022-10-11T21:14:13.246Z,17.39
2022-10-11T21:16:41.029Z,17.39
2022-10-11T21:19:14.490Z,17.38
2022-10-11T21:21:42.745Z,17.39
2022-10-11T21:24:10.718Z,17.36
2022-10-11T21:26:38.765Z,17.34
2022-10-11T21:29:07.567Z,17.34
2022-10-11T21:31:35.703Z,17.35
2022-10-11T21:34:05.189Z,17.36
2022-10-11T21:36:33.123Z,17.36
2022-10-11T21:39:00.992Z,17.38
2022-10-11T21:41:32.138Z,17.37
2022-10-11T21:44:00.240Z,17.38
2022-10-11T21:49:19.818Z,17.38
2022-10-11T21:51:47.591Z,17.35
2022-10-11T21:54:15.680Z,17.34
2022-10-11T21:56:43.518Z,17.35
2022-10-11T21:59:12.768Z,17.37
2022-10-11T22:01:42.723Z,17.37
2022-10-11T22:04:11.969Z,17.38
2022-10-11T22:06:40.203Z,17.38
2022-10-11T22:09:08.986Z,17.39
2022-10-11T22:11:37.285Z,17.40
2022-10-11T22:14:05.430Z,17.40
2022-10-11T22:16:34.702Z,17.41
2022-10-11T22:19:02.815Z,17.42
2022-10-11T22:21:31.160Z,17.41
2022-10-11T22:23:59.107Z,17.39
2022-10-11T22:26:30.833Z,17.36
2022-10-11T22:29:00.323Z,17.37
2022-10-11T22:31:29.260Z,17.35
2022-10-11T22:34:00.490Z,17.36
2022-10-11T22:36:33.802Z,17.35
2022-10-11T22:39:02.791Z,17.35
2022-10-11T22:41:30.507Z,17.33
2022-10-11T22:43:58.267Z,17.32
2022-10-11T22:46:26.007Z,17.31
2022-10-11T22:48:53.793Z,17.32
2022-10-11T22:51:21.614Z,17.31
2022-10-11T22:53:49.450Z,17.29
2022-10-11T22:56:17.227Z,17.26
2022-10-11T22:58:45.502Z,17.25
2022-10-11T23:01:18.340Z,17.23
2022-10-11T23:03:50.688Z,17.26
2022-10-11T23:06:18.826Z,17.24
2022-10-11T23:08:46.607Z,17.22
2022-10-11T23:11:14.611Z,17.21
2022-10-11T23:13:42.345Z,17.18
2022-10-11T23:16:12.328Z,17.13
2022-10-11T23:18:40.380Z,17.09
2022-10-11T23:21:08.763Z,17.05
2022-10-11T23:23:36.641Z,17.04
2022-10-11T23:26:11.123Z,17.03
2022-10-11T23:28:40.128Z,17.06
2022-10-11T23:31:14.330Z,17.07
2022-10-11T23:33:43.823Z,17.03
2022-10-11T23:36:24.487Z,17.02
2022-10-11T23:38:54.889Z,17.03
2022-10-11T23:41:29.411Z,17.01
2022-10-11T23:43:58.087Z,17.00
2022-10-11T23:46:25.843Z,16.98
2022-10-11T23:48:53.599Z,16.94
2022-10-11T23:51:21.409Z,16.92
2022-10-11T23:53:49.250Z,16.87
2022-10-11T23:56:17.046Z,16.83
2022-10-11T23:58:44.816Z,16.80
